createdAt,value
2019-02-06T00:00:42.110Z,3.50
2019-02-06T00:03:14.386Z,3.50
2019-02-06T00:05:44.766Z,3.50
2019-02-06T00:08:15.291Z,3.60
2019-02-06T00:10:45.657Z,3.60
2019-02-06T00:13:16.059Z,3.50
2019-02-06T00:15:46.398Z,3.50
2019-02-06T00:18:16.771Z,3.50
2019-02-06T00:20:47.139Z,3.50
2019-02-06T00:23:17.534Z,3.50
2019-02-06T00:25:47.890Z,3.50
2019-02-06T00:28:18.272Z,3.50
2019-02-06T00:30:49.110Z,3.50
2019-02-06T00:33:19.487Z,3.50
2019-02-06T00:35:49.841Z,3.50
2019-02-06T00:38:20.892Z,3.50
2019-02-06T00:40:51.279Z,3.50
2019-02-06T00:43:21.645Z,3.50
2019-02-06T00:45:52.032Z,3.50
2019-02-06T00:48:22.387Z,3.50
2019-02-06T00:50:52.768Z,3.60
2019-02-06T00:53:23.130Z,3.60
2019-02-06T00:55:53.508Z,3.60
2019-02-06T00:58:24.247Z,3.60
2019-02-06T01:00:54.627Z,3.60
2019-02-06T01:03:24.980Z,3.60
2019-02-06T01:05:55.355Z,3.60
2019-02-06T01:08:25.716Z,3.60
2019-02-06T01:10:56.159Z,3.60
2019-02-06T01:13:26.527Z,3.50
2019-02-06T01:15:56.910Z,3.50
2019-02-06T01:18:27.272Z,3.50
2019-02-06T01:20:57.648Z,3.50
2019-02-06T01:23:28.305Z,3.50
2019-02-06T01:25:58.664Z,3.50
2019-02-06T01:28:29.035Z,3.40
2019-02-06T01:31:01.051Z,3.40
2019-02-06T01:33:31.411Z,3.40
2019-02-06T01:36:01.791Z,3.40
2019-02-06T01:38:32.145Z,3.40
2019-02-06T01:41:03.002Z,3.40
2019-02-06T01:43:33.366Z,3.40
2019-02-06T01:46:03.744Z,3.30
2019-02-06T01:48:34.104Z,3.30
2019-02-06T01:51:04.488Z,3.30
2019-02-06T01:53:34.847Z,3.20
2019-02-06T01:56:05.771Z,3.30
2019-02-06T01:58:36.131Z,3.20
2019-02-06T02:01:07.188Z,3.20
2019-02-06T02:03:37.545Z,3.20
2019-02-06T02:06:07.925Z,3.20
2019-02-06T02:08:39.924Z,3.30
2019-02-06T02:11:10.305Z,3.30
2019-02-06T02:13:40.668Z,3.30
2019-02-06T02:16:11.058Z,3.40
2019-02-06T02:18:41.422Z,3.40
2019-02-06T02:21:11.807Z,3.40
2019-02-06T02:23:42.439Z,3.40
2019-02-06T02:26:12.820Z,3.40
2019-02-06T02:28:43.182Z,3.50
2019-02-06T02:31:13.637Z,3.50
2019-02-06T02:33:44.023Z,3.50
2019-02-06T02:36:16.450Z,3.50
2019-02-06T02:38:46.648Z,3.50
2019-02-06T02:41:17.008Z,3.50
2019-02-06T02:43:47.394Z,3.50
2019-02-06T02:46:17.753Z,3.50
2019-02-06T02:48:48.203Z,3.50
2019-02-06T02:51:18.599Z,3.50
2019-02-06T02:53:48.986Z,3.50
2019-02-06T02:56:19.346Z,3.50
2019-02-06T02:58:49.735Z,3.50
2019-02-06T03:01:27.806Z,3.50
2019-02-06T03:04:02.529Z,3.50
2019-02-06T03:06:32.884Z,3.50
2019-02-06T03:09:03.571Z,3.50
2019-02-06T03:11:33.930Z,3.50
2019-02-06T03:14:04.479Z,3.50
2019-02-06T03:16:47.794Z,3.50
2019-02-06T03:19:18.174Z,3.50
2019-02-06T03:21:48.535Z,3.50
2019-02-06T03:24:18.918Z,3.50
2019-02-06T03:26:49.285Z,3.50
2019-02-06T03:29:19.663Z,3.50
2019-02-06T03:31:50.021Z,3.50
2019-02-06T03:34:20.389Z,3.50
2019-02-06T03:36:50.769Z,3.50
2019-02-06T03:39:21.122Z,3.50
2019-02-06T03:41:51.783Z,3.40
2019-02-06T03:44:22.140Z,3.40
2019-02-06T03:46:52.529Z,3.40
2019-02-06T03:49:22.889Z,3.40
2019-02-06T03:51:53.276Z,3.40
2019-02-06T03:54:23.634Z,3.40
2019-02-06T03:56:54.287Z,3.40
2019-02-06T03:59:24.640Z,3.40
2019-02-06T04:01:55.020Z,3.40
2019-02-06T04:04:25.561Z,3.30
2019-02-06T04:07:00.892Z,3.30
2019-02-06T04:09:28.018Z,3.20
2019-02-06T04:11:58.931Z,3.20
2019-02-06T04:14:29.305Z,3.20
2019-02-06T04:16:59.685Z,3.20
2019-02-06T04:19:30.042Z,3.20
2019-02-06T04:22:00.422Z,3.10
2019-02-06T04:24:30.784Z,3.00
2019-02-06T04:27:01.171Z,2.90
2019-02-06T04:29:31.524Z,2.80
2019-02-06T04:32:01.905Z,2.70
2019-02-06T04:34:32.262Z,2.60
2019-02-06T04:37:06.758Z,2.60
2019-02-06T04:39:34.972Z,2.60
2019-02-06T04:42:05.528Z,2.50
2019-02-06T04:44:35.895Z,2.40
2019-02-06T04:47:06.278Z,2.40
2019-02-06T04:49:36.630Z,2.30
2019-02-06T04:52:07.183Z,2.20
2019-02-06T04:54:37.587Z,2.00
2019-02-06T04:57:09.539Z,1.90
2019-02-06T04:59:39.967Z,1.80
2019-02-06T05:02:10.416Z,1.70
2019-02-06T05:04:41.160Z,1.60
2019-02-06T05:07:19.466Z,1.50
2019-02-06T05:09:43.595Z,1.30
2019-02-06T05:12:13.976Z,1.20
2019-02-06T05:14:44.338Z,1.10
2019-02-06T05:17:14.725Z,1.00
2019-02-06T05:19:45.361Z,0.90
2019-02-06T05:22:15.842Z,0.90
2019-02-06T05:24:46.180Z,0.80
2019-02-06T05:27:16.561Z,0.80
2019-02-06T05:29:46.928Z,0.70
2019-02-06T05:32:17.401Z,0.70
2019-02-06T05:34:47.735Z,0.70
2019-02-06T05:37:18.116Z,0.70
2019-02-06T05:39:48.486Z,0.70
2019-02-06T05:42:18.923Z,0.70
2019-02-06T05:44:49.248Z,0.60
2019-02-06T05:47:20.013Z,0.60
2019-02-06T05:49:50.385Z,0.50
2019-02-06T05:52:20.761Z,0.40
2019-02-06T05:54:51.123Z,0.40
2019-02-06T05:57:21.515Z,0.30
2019-02-06T05:59:51.879Z,0.40
2019-02-06T06:02:22.744Z,0.30
2019-02-06T06:04:53.107Z,0.30
2019-02-06T06:07:23.492Z,0.30
2019-02-06T06:09:53.851Z,0.30
2019-02-06T06:12:24.241Z,0.20
2019-02-06T06:14:54.612Z,0.20
2019-02-06T06:17:25.279Z,0.10
2019-02-06T06:19:55.635Z,0.20
2019-02-06T06:22:26.028Z,0.20
2019-02-06T06:24:56.403Z,0.20
2019-02-06T06:27:26.784Z,0.20
2019-02-06T06:29:57.148Z,0.10
2019-02-06T06:32:27.824Z,0.10
2019-02-06T06:34:58.219Z,0.10
2019-02-06T06:37:28.583Z,0.10
2019-02-06T06:39:59.115Z,0.20
2019-02-06T06:42:30.134Z,0.30
2019-02-06T06:45:00.499Z,0.30
2019-02-06T06:47:30.884Z,0.30
2019-02-06T06:50:01.249Z,0.40
2019-02-06T06:52:31.632Z,0.40
2019-02-06T06:55:02.003Z,0.50
2019-02-06T06:57:32.382Z,0.60
2019-02-06T07:00:03.016Z,0.70
2019-02-06T07:02:34.468Z,0.80
2019-02-06T07:05:08.836Z,0.90
2019-02-06T07:07:39.249Z,1.00
2019-02-06T07:10:17.444Z,1.20
2019-02-06T07:12:47.813Z,1.30
2019-02-06T07:15:33.260Z,1.40
2019-02-06T07:18:03.846Z,1.60
2019-02-06T07:20:34.209Z,1.70
2019-02-06T07:23:05.031Z,1.70
2019-02-06T07:25:35.387Z,1.80
2019-02-06T07:28:05.839Z,1.90
2019-02-06T07:30:37.207Z,1.90
2019-02-06T07:33:07.966Z,2.00
2019-02-06T07:35:38.331Z,2.10
2019-02-06T07:38:11.650Z,2.00
2019-02-06T07:40:40.780Z,1.90
2019-02-06T07:43:11.160Z,1.80
2019-02-06T07:45:41.518Z,1.70
2019-02-06T07:48:11.897Z,1.60
2019-02-06T07:50:42.535Z,1.60
2019-02-06T07:53:12.915Z,1.70
2019-02-06T07:55:43.272Z,1.70
2019-02-06T07:58:13.654Z,1.90
2019-02-06T08:00:44.017Z,2.20
2019-02-06T08:03:14.403Z,2.70
2019-02-06T08:05:44.783Z,3.00
2019-02-06T08:08:15.158Z,3.20
2019-02-06T08:10:45.518Z,3.40
2019-02-06T08:13:15.897Z,3.50
2019-02-06T08:15:46.258Z,3.50
2019-02-06T08:18:16.915Z,3.60
2019-02-06T08:20:47.279Z,3.50
2019-02-06T08:23:17.654Z,3.50
2019-02-06T08:25:48.016Z,3.50
2019-02-06T08:28:18.467Z,3.60
2019-02-06T08:30:48.833Z,3.80
2019-02-06T08:33:19.415Z,3.80
2019-02-06T08:35:49.834Z,4.00
2019-02-06T08:38:20.250Z,4.40
2019-02-06T08:40:50.625Z,4.80
2019-02-06T08:43:21.077Z,5.20
2019-02-06T08:45:51.428Z,5.70
2019-02-06T08:48:21.850Z,6.70
2019-02-06T08:50:52.300Z,7.10
2019-02-06T08:53:22.679Z,7.00
2019-02-06T08:55:53.431Z,6.90
2019-02-06T08:58:23.895Z,6.80
2019-02-06T09:00:54.738Z,7.40
2019-02-06T09:03:25.122Z,8.40
2019-02-06T09:05:55.481Z,9.50
2019-02-06T09:08:25.871Z,9.50
2019-02-06T09:10:56.222Z,9.40
2019-02-06T09:13:26.609Z,9.40
2019-02-06T09:15:56.967Z,9.20
2019-02-06T09:18:27.371Z,8.90
2019-02-06T09:20:57.719Z,9.20
2019-02-06T09:23:28.104Z,9.80
2019-02-06T09:25:58.488Z,10.90
2019-02-06T09:28:29.361Z,11.90
2019-02-06T09:30:59.743Z,13.20
2019-02-06T09:33:30.141Z,14.40
2019-02-06T09:36:00.571Z,14.70
2019-02-06T09:38:30.945Z,15.40
2019-02-06T09:41:01.320Z,15.30
2019-02-06T09:43:32.027Z,15.50
2019-02-06T09:46:02.412Z,16.60
2019-02-06T09:48:32.798Z,17.50
2019-02-06T09:51:03.160Z,18.00
2019-02-06T09:53:33.558Z,17.60
2019-02-06T09:56:04.021Z,16.30
2019-02-06T09:58:34.396Z,15.00
2019-02-06T10:01:04.784Z,14.10
2019-02-06T10:03:35.162Z,13.00
2019-02-06T10:06:05.557Z,12.10
2019-02-06T10:08:35.931Z,11.40
2019-02-06T10:11:06.702Z,11.00
2019-02-06T10:13:37.068Z,10.60
2019-02-06T10:16:07.466Z,10.70
2019-02-06T10:18:37.832Z,10.80
2019-02-06T10:21:08.979Z,11.00
2019-02-06T10:23:39.352Z,11.40
2019-02-06T10:26:09.922Z,12.10
2019-02-06T10:28:40.295Z,12.60
2019-02-06T10:31:10.689Z,13.30
2019-02-06T10:33:41.063Z,13.90
2019-02-06T10:36:11.458Z,13.80
2019-02-06T10:38:41.838Z,14.40
2019-02-06T10:41:12.299Z,14.80
2019-02-06T10:43:42.672Z,15.70
2019-02-06T10:46:13.130Z,15.90
2019-02-06T10:48:43.955Z,15.70
2019-02-06T10:51:14.841Z,15.60
2019-02-06T10:53:45.497Z,15.50
2019-02-06T10:56:15.887Z,15.70
2019-02-06T10:58:46.253Z,16.10
2019-02-06T11:01:16.736Z,16.60
2019-02-06T11:03:47.111Z,17.00
2019-02-06T11:06:17.504Z,17.50
2019-02-06T11:08:48.043Z,17.50
2019-02-06T11:11:18.435Z,17.70
2019-02-06T11:13:49.863Z,17.20
2019-02-06T11:16:20.379Z,16.20
2019-02-06T11:18:50.746Z,15.20
2019-02-06T11:21:21.618Z,15.00
2019-02-06T11:23:52.195Z,15.00
2019-02-06T11:26:22.564Z,14.60
2019-02-06T11:28:52.967Z,13.40
2019-02-06T11:31:23.345Z,12.70
2019-02-06T11:33:53.730Z,12.60
2019-02-06T11:36:24.537Z,13.00
2019-02-06T11:38:55.543Z,13.30
2019-02-06T11:41:25.910Z,13.30
2019-02-06T11:43:56.292Z,12.60
2019-02-06T11:46:26.660Z,12.50
2019-02-06T11:48:57.437Z,12.10
2019-02-06T11:51:27.874Z,11.40
2019-02-06T11:53:58.258Z,10.80
2019-02-06T11:56:28.628Z,10.40
2019-02-06T11:58:59.187Z,10.00
2019-02-06T12:01:30.021Z,9.70
2019-02-06T12:04:00.394Z,9.50
2019-02-06T12:06:30.825Z,9.70
2019-02-06T12:09:01.271Z,9.70
2019-02-06T12:11:32.638Z,9.90
2019-02-06T12:14:03.064Z,10.10
2019-02-06T12:16:33.716Z,10.00
2019-02-06T12:19:04.458Z,9.90
2019-02-06T12:21:46.994Z,9.80
2019-02-06T12:24:18.350Z,9.60
2019-02-06T12:26:48.713Z,9.70
2019-02-06T12:29:19.271Z,10.10
2019-02-06T12:31:49.649Z,10.30
2019-02-06T12:34:20.028Z,10.40
2019-02-06T12:36:50.398Z,10.60
2019-02-06T12:39:22.768Z,11.00
2019-02-06T12:41:52.859Z,11.40
2019-02-06T12:44:23.639Z,11.70
2019-02-06T12:46:53.980Z,11.80
2019-02-06T12:49:24.365Z,11.70
2019-02-06T12:51:54.731Z,11.30
2019-02-06T12:54:25.138Z,11.10
2019-02-06T12:56:55.485Z,11.20
2019-02-06T12:59:27.227Z,11.20
2019-02-06T13:01:57.592Z,11.40
2019-02-06T13:04:28.041Z,11.60
2019-02-06T13:07:00.253Z,11.60
2019-02-06T13:09:31.484Z,11.50
2019-02-06T13:12:01.895Z,11.40
2019-02-06T13:14:32.285Z,11.30
2019-02-06T13:17:02.663Z,11.30
2019-02-06T13:19:33.068Z,11.10
2019-02-06T13:22:03.609Z,11.10
2019-02-06T13:24:34.013Z,10.80
2019-02-06T13:27:04.835Z,10.60
2019-02-06T13:29:36.299Z,10.10
2019-02-06T13:32:06.662Z,9.80
2019-02-06T13:34:37.053Z,9.50
2019-02-06T13:37:07.421Z,9.50
2019-02-06T13:39:37.817Z,9.40
2019-02-06T13:42:08.178Z,9.40
2019-02-06T13:44:41.424Z,9.30
2019-02-06T13:47:10.661Z,9.00
2019-02-06T13:49:41.020Z,8.90
2019-02-06T13:52:11.408Z,8.90
2019-02-06T13:54:42.142Z,8.70
2019-02-06T13:57:12.533Z,8.70
2019-02-06T13:59:42.895Z,8.40
2019-02-06T14:02:13.275Z,8.20
2019-02-06T14:04:43.638Z,8.20
2019-02-06T14:07:14.023Z,8.00
2019-02-06T14:09:44.380Z,7.90
2019-02-06T14:12:14.768Z,7.70
2019-02-06T14:14:45.119Z,7.60
2019-02-06T14:17:18.229Z,7.50
2019-02-06T14:19:47.576Z,7.40
2019-02-06T14:22:18.228Z,7.30
2019-02-06T14:24:48.666Z,7.10
2019-02-06T14:27:32.349Z,6.90
2019-02-06T14:30:36.485Z,6.80
2019-02-06T14:33:17.195Z,6.80
2019-02-06T14:36:17.517Z,6.70
2019-02-06T14:39:14.903Z,6.50
2019-02-06T14:41:53.415Z,6.40
2019-02-06T14:44:44.122Z,6.40
2019-02-06T14:47:33.818Z,6.20
2019-02-06T14:50:31.721Z,6.10
2019-02-06T14:53:21.525Z,6.00
2019-02-06T14:56:17.715Z,5.90
2019-02-06T14:59:34.572Z,5.80
2019-02-06T15:02:32.128Z,5.70
2019-02-06T15:05:24.647Z,5.60
2019-02-06T15:08:23.500Z,5.50
2019-02-06T15:11:19.840Z,5.40
2019-02-06T15:14:04.670Z,5.30
2019-02-06T15:17:06.346Z,5.30
2019-02-06T15:19:47.440Z,5.20
2019-02-06T15:22:49.357Z,5.10
2019-02-06T15:25:26.941Z,5.00
2019-02-06T15:28:19.600Z,5.00
2019-02-06T15:31:18.492Z,4.90
2019-02-06T15:34:15.673Z,4.80
2019-02-06T15:37:14.820Z,4.80
2019-02-06T15:40:27.681Z,4.70
2019-02-06T15:43:23.974Z,4.70
2019-02-06T15:46:04.801Z,4.60
2019-02-06T15:48:58.645Z,4.60
2019-02-06T15:51:59.082Z,4.50
2019-02-06T15:55:25.736Z,4.40
2019-02-06T15:58:12.589Z,4.40
2019-02-06T16:01:15.342Z,4.30
2019-02-06T16:04:30.345Z,4.30
2019-02-06T16:07:19.774Z,4.20
2019-02-06T16:10:31.428Z,4.20
2019-02-06T16:13:27.144Z,4.20
2019-02-06T16:16:02.221Z,4.10
2019-02-06T16:19:06.054Z,4.10
2019-02-06T16:21:53.492Z,4.10
2019-02-06T16:24:48.603Z,4.00
2019-02-06T16:27:26.289Z,4.00
2019-02-06T16:30:13.285Z,4.00
2019-02-06T16:32:53.747Z,4.00
2019-02-06T16:35:52.279Z,4.00
2019-02-06T16:38:35.493Z,4.00
2019-02-06T16:41:31.506Z,4.00
2019-02-06T16:44:24.282Z,4.00
2019-02-06T16:47:26.914Z,4.00
2019-02-06T16:50:24.499Z,4.00
2019-02-06T16:53:26.356Z,4.00
2019-02-06T16:56:25.079Z,4.00
2019-02-06T16:59:17.858Z,4.00
2019-02-06T17:02:18.579Z,4.00
2019-02-06T17:05:30.930Z,4.00
2019-02-06T17:08:25.504Z,4.00
2019-02-06T17:11:35.586Z,4.00
2019-02-06T17:14:19.148Z,4.10
2019-02-06T17:17:05.841Z,4.10
2019-02-06T17:19:46.961Z,4.10
2019-02-06T17:23:03.950Z,4.10
2019-02-06T17:25:53.515Z,4.10
2019-02-06T17:28:36.665Z,4.10
2019-02-06T17:31:41.489Z,4.10
2019-02-06T17:34:39.367Z,4.20
2019-02-06T17:37:39.492Z,4.10
2019-02-06T17:40:31.002Z,4.20
2019-02-06T17:43:18.094Z,4.20
2019-02-06T17:46:22.666Z,4.20
2019-02-06T17:49:34.328Z,4.30
2019-02-06T17:52:38.124Z,4.30
2019-02-06T17:55:17.472Z,4.30
2019-02-06T17:57:50.322Z,4.40
2019-02-06T18:00:31.638Z,4.40
2019-02-06T18:03:06.849Z,4.40
2019-02-06T18:05:40.153Z,4.50
2019-02-06T18:08:09.839Z,4.40
2019-02-06T18:10:41.371Z,4.50
2019-02-06T18:13:13.830Z,4.50
2019-02-06T18:15:44.218Z,4.50
2019-02-06T18:18:15.424Z,4.60
2019-02-06T18:20:46.092Z,4.50
2019-02-06T18:23:16.480Z,4.50
2019-02-06T18:25:46.840Z,4.50
2019-02-06T18:28:17.213Z,4.50
2019-02-06T18:30:47.639Z,4.50
2019-02-06T18:33:18.850Z,4.50
2019-02-06T18:35:50.038Z,4.50
2019-02-06T18:38:20.399Z,4.60
2019-02-06T18:40:50.863Z,4.60
2019-02-06T18:43:22.185Z,4.60
2019-02-06T18:45:52.648Z,4.50
2019-02-06T18:48:25.093Z,4.50
2019-02-06T18:50:55.828Z,4.50
2019-02-06T18:53:26.187Z,4.50
2019-02-06T18:55:56.596Z,4.50
2019-02-06T18:58:27.574Z,4.50
2019-02-06T19:00:58.122Z,4.50
2019-02-06T19:03:33.137Z,4.50
2019-02-06T19:06:03.648Z,4.50
2019-02-06T19:08:34.426Z,4.50
2019-02-06T19:11:05.288Z,4.50
2019-02-06T19:13:36.522Z,4.40
2019-02-06T19:16:07.154Z,4.40
2019-02-06T19:18:37.592Z,4.30
2019-02-06T19:21:07.981Z,4.40
2019-02-06T19:23:38.718Z,4.40
2019-02-06T19:26:09.107Z,4.40
2019-02-06T19:28:40.130Z,4.40
2019-02-06T19:31:10.963Z,4.40
2019-02-06T19:33:41.341Z,4.40
2019-02-06T19:36:11.734Z,4.30
2019-02-06T19:38:42.481Z,4.30
2019-02-06T19:41:12.864Z,4.30
2019-02-06T19:43:43.315Z,4.20
2019-02-06T19:46:13.704Z,4.30
2019-02-06T19:48:44.071Z,4.20
2019-02-06T19:51:14.458Z,4.20
2019-02-06T19:53:45.097Z,4.20
2019-02-06T19:56:15.487Z,4.20
2019-02-06T19:58:45.847Z,4.10
2019-02-06T20:01:16.241Z,4.00
2019-02-06T20:03:46.708Z,3.90
2019-02-06T20:08:58.625Z,3.80
2019-02-06T20:11:29.027Z,3.80
2019-02-06T20:13:59.389Z,3.80
2019-02-06T20:16:29.781Z,3.70
2019-02-06T20:19:00.216Z,3.70
2019-02-06T20:21:30.608Z,3.70
2019-02-06T20:24:01.247Z,3.70
2019-02-06T20:26:31.649Z,3.60
2019-02-06T20:29:01.995Z,3.60
2019-02-06T20:31:32.394Z,3.60
2019-02-06T20:34:02.749Z,3.50
2019-02-06T20:36:33.135Z,3.50
2019-02-06T20:39:05.407Z,3.50
2019-02-06T20:41:36.171Z,3.40
2019-02-06T20:44:06.697Z,3.40
2019-02-06T20:46:37.084Z,3.40
2019-02-06T20:49:07.611Z,3.40
2019-02-06T20:51:38.004Z,3.40
2019-02-06T20:54:08.739Z,3.40
2019-02-06T20:56:39.130Z,3.30
2019-02-06T20:59:09.487Z,3.30
2019-02-06T21:01:39.878Z,3.30
2019-02-06T21:04:10.238Z,3.20
2019-02-06T21:06:54.354Z,3.10
2019-02-06T21:09:24.715Z,3.10
2019-02-06T21:11:55.099Z,3.10
2019-02-06T21:14:25.467Z,3.10
2019-02-06T21:16:55.857Z,3.00
2019-02-06T21:19:28.184Z,3.00
2019-02-06T21:21:58.305Z,2.90
2019-02-06T21:24:28.659Z,2.90
2019-02-06T21:26:59.058Z,2.90
2019-02-06T21:29:29.421Z,2.90
2019-02-06T21:31:59.808Z,2.90
2019-02-06T21:34:30.543Z,2.90
2019-02-06T21:37:00.919Z,3.00
2019-02-06T21:39:31.282Z,3.00
2019-02-06T21:42:01.675Z,3.00
2019-02-06T21:44:32.036Z,3.00
2019-02-06T21:47:02.421Z,3.10
2019-02-06T21:49:33.158Z,3.10
2019-02-06T21:52:03.715Z,3.10
2019-02-06T21:54:34.084Z,3.10
2019-02-06T21:57:04.608Z,3.10
2019-02-06T21:59:34.990Z,3.10
2019-02-06T22:02:05.714Z,3.10
2019-02-06T22:04:36.074Z,3.10
2019-02-06T22:07:06.469Z,3.10
2019-02-06T22:09:36.822Z,3.10
2019-02-06T22:12:07.214Z,3.10
2019-02-06T22:14:37.581Z,3.10
2019-02-06T22:17:09.237Z,3.10
2019-02-06T22:19:39.618Z,3.10
2019-02-06T22:22:09.998Z,3.20
2019-02-06T22:24:40.360Z,3.20
2019-02-06T22:27:10.726Z,3.20
2019-02-06T22:29:41.285Z,3.30
2019-02-06T22:32:11.753Z,3.30
2019-02-06T22:34:42.157Z,3.30
2019-02-06T22:37:12.526Z,3.30
2019-02-06T22:39:42.933Z,3.20
2019-02-06T22:42:13.280Z,3.10
2019-02-06T22:44:43.742Z,3.00
2019-02-06T22:47:14.112Z,3.00
2019-02-06T22:49:44.495Z,3.00
2019-02-06T22:52:15.029Z,3.00
2019-02-06T22:54:45.412Z,3.00
2019-02-06T22:57:16.047Z,3.10
2019-02-06T22:59:46.430Z,3.10
2019-02-06T23:02:16.793Z,3.20
2019-02-06T23:04:47.207Z,3.30
2019-02-06T23:07:17.565Z,3.40
2019-02-06T23:09:47.946Z,3.40
2019-02-06T23:12:18.315Z,3.30
2019-02-06T23:14:48.763Z,3.30
2019-02-06T23:17:19.123Z,3.30
2019-02-06T23:19:49.502Z,3.30
2019-02-06T23:22:19.866Z,3.30
2019-02-06T23:24:50.555Z,3.30
2019-02-06T23:27:20.915Z,3.30
2019-02-06T23:29:52.266Z,3.30
2019-02-06T23:32:22.621Z,3.30
2019-02-06T23:34:53.969Z,3.20
2019-02-06T23:37:24.611Z,3.20
2019-02-06T23:39:54.986Z,3.20
2019-02-06T23:42:25.350Z,3.10
2019-02-06T23:44:55.737Z,3.10
2019-02-06T23:47:26.103Z,3.00
2019-02-06T23:49:57.456Z,2.90
2019-02-06T23:52:27.817Z,2.80
2019-02-06T23:54:58.205Z,2.80
2019-02-06T23:57:28.574Z,2.70
2019-02-06T23:59:58.952Z,2.60
